sensor_id;sensor_type;location;lat;lon;timestamp;P1;durP1;ratioP1;P2;durP2;ratioP2
72573;SDS011;60603;52.548;13.420;2022-09-29T00:00:40;9.25;;;4.40;;
72573;SDS011;60603;52.548;13.420;2022-09-29T00:03:25;10.55;;;4.70;;
72573;SDS011;60603;52.548;13.420;2022-09-29T00:05:52;8.65;;;4.32;;
72573;SDS011;60603;52.548;13.420;2022-09-29T00:08:19;11.35;;;5.18;;
72573;SDS011;60603;52.548;13.420;2022-09-29T00:10:46;10.18;;;4.75;;
72573;SDS011;60603;52.548;13.420;2022-09-29T00:13:12;11.82;;;4.70;;
72573;SDS011;60603;52.548;13.420;2022-09-29T00:15:39;10.10;;;4.97;;
72573;SDS011;60603;52.548;13.420;2022-09-29T00:18:05;9.13;;;4.60;;
72573;SDS011;60603;52.548;13.420;2022-09-29T00:20:31;8.95;;;4.25;;
72573;SDS011;60603;52.548;13.420;2022-09-29T00:22:57;9.85;;;4.43;;
72573;SDS011;60603;52.548;13.420;2022-09-29T00:25:23;10.90;;;5.32;;
72573;SDS011;60603;52.548;13.420;2022-09-29T00:27:49;11.55;;;5.28;;
72573;SDS011;60603;52.548;13.420;2022-09-29T00:30:14;11.18;;;5.13;;
72573;SDS011;60603;52.548;13.420;2022-09-29T00:32:40;12.38;;;5.82;;
72573;SDS011;60603;52.548;13.420;2022-09-29T00:35:06;12.82;;;6.13;;
72573;SDS011;60603;52.548;13.420;2022-09-29T00:37:33;10.95;;;5.50;;
72573;SDS011;60603;52.548;13.420;2022-09-29T00:39:59;11.05;;;5.38;;
72573;SDS011;60603;52.548;13.420;2022-09-29T00:42:26;10.77;;;5.10;;
72573;SDS011;60603;52.548;13.420;2022-09-29T00:47:24;12.18;;;5.43;;
72573;SDS011;60603;52.548;13.420;2022-09-29T00:49:58;11.20;;;5.32;;
72573;SDS011;60603;52.548;13.420;2022-09-29T00:52:35;9.98;;;5.35;;
72573;SDS011;60603;52.548;13.420;2022-09-29T00:55:16;17.55;;;6.28;;
72573;SDS011;60603;52.548;13.420;2022-09-29T00:58:04;12.80;;;5.72;;
72573;SDS011;60603;52.548;13.420;2022-09-29T01:00:32;10.70;;;5.50;;
72573;SDS011;60603;52.548;13.420;2022-09-29T01:02:59;16.02;;;6.55;;
72573;SDS011;60603;52.548;13.420;2022-09-29T01:05:31;12.40;;;6.13;;
72573;SDS011;60603;52.548;13.420;2022-09-29T01:08:42;13.05;;;5.78;;
72573;SDS011;60603;52.548;13.420;2022-09-29T01:10:53;10.93;;;5.40;;
72573;SDS011;60603;52.548;13.420;2022-09-29T01:13:18;16.42;;;6.20;;
72573;SDS011;60603;52.548;13.420;2022-09-29T01:15:44;15.63;;;7.15;;
72573;SDS011;60603;52.548;13.420;2022-09-29T01:18:10;12.45;;;5.65;;
72573;SDS011;60603;52.548;13.420;2022-09-29T01:20:39;12.93;;;6.38;;
72573;SDS011;60603;52.548;13.420;2022-09-29T01:23:21;13.20;;;6.30;;
72573;SDS011;60603;52.548;13.420;2022-09-29T01:34:37;16.38;;;6.70;;
72573;SDS011;60603;52.548;13.420;2022-09-29T01:37:28;15.77;;;6.15;;
72573;SDS011;60603;52.548;13.420;2022-09-29T01:40:15;15.63;;;6.80;;
72573;SDS011;60603;52.548;13.420;2022-09-29T01:47:55;15.35;;;6.72;;
72573;SDS011;60603;52.548;13.420;2022-09-29T01:50:28;15.65;;;6.63;;
72573;SDS011;60603;52.548;13.420;2022-09-29T01:53:01;17.25;;;6.68;;
72573;SDS011;60603;52.548;13.420;2022-09-29T01:55:30;17.27;;;7.05;;
72573;SDS011;60603;52.548;13.420;2022-09-29T01:57:58;17.27;;;7.00;;
72573;SDS011;60603;52.548;13.420;2022-09-29T02:00:25;14.05;;;6.85;;
72573;SDS011;60603;52.548;13.420;2022-09-29T02:05:35;16.50;;;6.97;;
72573;SDS011;60603;52.548;13.420;2022-09-29T02:08:09;15.25;;;6.95;;
72573;SDS011;60603;52.548;13.420;2022-09-29T02:10:40;14.50;;;6.47;;
72573;SDS011;60603;52.548;13.420;2022-09-29T02:13:14;15.93;;;7.07;;
72573;SDS011;60603;52.548;13.420;2022-09-29T02:15:43;18.05;;;7.25;;
72573;SDS011;60603;52.548;13.420;2022-09-29T02:18:18;18.60;;;8.23;;
72573;SDS011;60603;52.548;13.420;2022-09-29T02:20:47;15.40;;;7.43;;
72573;SDS011;60603;52.548;13.420;2022-09-29T02:23:13;18.20;;;7.30;;
72573;SDS011;60603;52.548;13.420;2022-09-29T02:25:39;16.13;;;6.60;;
72573;SDS011;60603;52.548;13.420;2022-09-29T02:28:05;17.45;;;7.15;;
72573;SDS011;60603;52.548;13.420;2022-09-29T02:30:33;20.50;;;7.97;;
72573;SDS011;60603;52.548;13.420;2022-09-29T02:32:59;14.45;;;6.75;;
72573;SDS011;60603;52.548;13.420;2022-09-29T02:35:27;16.75;;;7.30;;
72573;SDS011;60603;52.548;13.420;2022-09-29T02:38:24;18.98;;;7.70;;
72573;SDS011;60603;52.548;13.420;2022-09-29T02:40:59;16.42;;;7.63;;
72573;SDS011;60603;52.548;13.420;2022-09-29T02:43:41;18.70;;;7.60;;
72573;SDS011;60603;52.548;13.420;2022-09-29T02:46:34;16.15;;;7.72;;
72573;SDS011;60603;52.548;13.420;2022-09-29T02:54:48;13.52;;;5.97;;
72573;SDS011;60603;52.548;13.420;2022-09-29T03:00:18;16.63;;;6.95;;
72573;SDS011;60603;52.548;13.420;2022-09-29T03:02:44;14.85;;;6.85;;
72573;SDS011;60603;52.548;13.420;2022-09-29T03:05:14;14.23;;;6.47;;
72573;SDS011;60603;52.548;13.420;2022-09-29T03:07:41;16.10;;;7.45;;
72573;SDS011;60603;52.548;13.420;2022-09-29T03:10:08;12.95;;;6.72;;
72573;SDS011;60603;52.548;13.420;2022-09-29T03:12:35;14.85;;;6.63;;
72573;SDS011;60603;52.548;13.420;2022-09-29T03:15:00;13.65;;;6.53;;
72573;SDS011;60603;52.548;13.420;2022-09-29T03:17:27;12.40;;;6.03;;
72573;SDS011;60603;52.548;13.420;2022-09-29T03:19:53;12.00;;;6.50;;
72573;SDS011;60603;52.548;13.420;2022-09-29T03:22:19;14.50;;;6.85;;
72573;SDS011;60603;52.548;13.420;2022-09-29T03:24:45;13.40;;;7.15;;
72573;SDS011;60603;52.548;13.420;2022-09-29T03:27:10;11.85;;;6.60;;
72573;SDS011;60603;52.548;13.420;2022-09-29T03:29:36;13.55;;;6.35;;
72573;SDS011;60603;52.548;13.420;2022-09-29T03:32:02;14.35;;;7.32;;
72573;SDS011;60603;52.548;13.420;2022-09-29T03:34:28;14.48;;;7.55;;
72573;SDS011;60603;52.548;13.420;2022-09-29T03:36:54;12.85;;;6.90;;
72573;SDS011;60603;52.548;13.420;2022-09-29T03:39:22;12.90;;;7.13;;
72573;SDS011;60603;52.548;13.420;2022-09-29T03:41:48;15.27;;;7.68;;
72573;SDS011;60603;52.548;13.420;2022-09-29T03:44:14;13.65;;;7.38;;
72573;SDS011;60603;52.548;13.420;2022-09-29T03:46:41;12.20;;;7.15;;
72573;SDS011;60603;52.548;13.420;2022-09-29T03:49:09;12.30;;;6.60;;
72573;SDS011;60603;52.548;13.420;2022-09-29T03:51:36;18.08;;;7.75;;
72573;SDS011;60603;52.548;13.420;2022-09-29T03:54:02;14.50;;;6.57;;
72573;SDS011;60603;52.548;13.420;2022-09-29T03:56:27;13.23;;;6.57;;
72573;SDS011;60603;52.548;13.420;2022-09-29T03:58:53;11.82;;;7.10;;
72573;SDS011;60603;52.548;13.420;2022-09-29T04:01:19;13.52;;;6.65;;
72573;SDS011;60603;52.548;13.420;2022-09-29T04:03:45;12.93;;;7.05;;
72573;SDS011;60603;52.548;13.420;2022-09-29T04:06:11;13.30;;;7.15;;
72573;SDS011;60603;52.548;13.420;2022-09-29T04:08:37;13.55;;;7.55;;
72573;SDS011;60603;52.548;13.420;2022-09-29T04:11:03;14.30;;;7.20;;
72573;SDS011;60603;52.548;13.420;2022-09-29T04:13:29;12.05;;;6.93;;
72573;SDS011;60603;52.548;13.420;2022-09-29T04:15:58;12.27;;;6.75;;
72573;SDS011;60603;52.548;13.420;2022-09-29T04:20:50;12.38;;;6.95;;
72573;SDS011;60603;52.548;13.420;2022-09-29T04:23:16;12.98;;;7.05;;
72573;SDS011;60603;52.548;13.420;2022-09-29T04:25:45;14.68;;;7.75;;
72573;SDS011;60603;52.548;13.420;2022-09-29T04:28:11;12.65;;;7.00;;
72573;SDS011;60603;52.548;13.420;2022-09-29T04:30:37;14.40;;;7.78;;
72573;SDS011;60603;52.548;13.420;2022-09-29T04:33:03;13.70;;;7.05;;
72573;SDS011;60603;52.548;13.420;2022-09-29T04:35:29;15.32;;;6.97;;
72573;SDS011;60603;52.548;13.420;2022-09-29T04:37:55;12.82;;;7.10;;
72573;SDS011;60603;52.548;13.420;2022-09-29T04:40:22;15.13;;;7.07;;
72573;SDS011;60603;52.548;13.420;2022-09-29T04:42:48;14.18;;;7.22;;
72573;SDS011;60603;52.548;13.420;2022-09-29T04:45:14;12.57;;;7.35;;
72573;SDS011;60603;52.548;13.420;2022-09-29T04:47:40;13.88;;;7.25;;
72573;SDS011;60603;52.548;13.420;2022-09-29T04:50:05;32.97;;;8.25;;
72573;SDS011;60603;52.548;13.420;2022-09-29T04:52:32;13.88;;;7.15;;
72573;SDS011;60603;52.548;13.420;2022-09-29T04:54:57;13.68;;;7.72;;
72573;SDS011;60603;52.548;13.420;2022-09-29T04:57:23;12.93;;;7.18;;
72573;SDS011;60603;52.548;13.420;2022-09-29T04:59:49;14.48;;;7.22;;
72573;SDS011;60603;52.548;13.420;2022-09-29T05:02:16;16.35;;;7.95;;
72573;SDS011;60603;52.548;13.420;2022-09-29T05:04:43;13.98;;;6.68;;
72573;SDS011;60603;52.548;13.420;2022-09-29T05:07:10;15.25;;;8.20;;
72573;SDS011;60603;52.548;13.420;2022-09-29T05:09:35;12.93;;;7.22;;
72573;SDS011;60603;52.548;13.420;2022-09-29T05:12:01;13.85;;;7.22;;
72573;SDS011;60603;52.548;13.420;2022-09-29T05:14:27;12.48;;;7.10;;
72573;SDS011;60603;52.548;13.420;2022-09-29T05:16:53;13.68;;;7.03;;
72573;SDS011;60603;52.548;13.420;2022-09-29T05:19:19;16.27;;;7.85;;
72573;SDS011;60603;52.548;13.420;2022-09-29T05:21:45;13.23;;;7.47;;
72573;SDS011;60603;52.548;13.420;2022-09-29T05:24:11;15.15;;;8.05;;
72573;SDS011;60603;52.548;13.420;2022-09-29T05:26:37;14.32;;;7.63;;
72573;SDS011;60603;52.548;13.420;2022-09-29T05:29:03;14.68;;;8.02;;
72573;SDS011;60603;52.548;13.420;2022-09-29T05:31:28;17.02;;;8.63;;
72573;SDS011;60603;52.548;13.420;2022-09-29T05:33:55;14.88;;;7.95;;
72573;SDS011;60603;52.548;13.420;2022-09-29T05:36:21;14.20;;;7.93;;
72573;SDS011;60603;52.548;13.420;2022-09-29T05:38:47;13.35;;;7.32;;
72573;SDS011;60603;52.548;13.420;2022-09-29T05:41:13;17.17;;;8.23;;
72573;SDS011;60603;52.548;13.420;2022-09-29T05:43:41;14.48;;;6.80;;
72573;SDS011;60603;52.548;13.420;2022-09-29T05:46:07;15.65;;;8.10;;
72573;SDS011;60603;52.548;13.420;2022-09-29T05:48:34;14.07;;;7.68;;
72573;SDS011;60603;52.548;13.420;2022-09-29T05:51:06;14.70;;;7.60;;
72573;SDS011;60603;52.548;13.420;2022-09-29T05:53:37;15.02;;;7.82;;
72573;SDS011;60603;52.548;13.420;2022-09-29T05:56:04;10.85;;;6.63;;
72573;SDS011;60603;52.548;13.420;2022-09-29T05:58:39;16.10;;;7.60;;
72573;SDS011;60603;52.548;13.420;2022-09-29T06:01:06;13.35;;;7.05;;
72573;SDS011;60603;52.548;13.420;2022-09-29T06:03:33;13.18;;;7.30;;
72573;SDS011;60603;52.548;13.420;2022-09-29T06:06:06;13.85;;;7.40;;
72573;SDS011;60603;52.548;13.420;2022-09-29T06:08:34;14.25;;;7.75;;
72573;SDS011;60603;52.548;13.420;2022-09-29T06:11:07;15.52;;;7.95;;
72573;SDS011;60603;52.548;13.420;2022-09-29T06:13:39;17.27;;;9.00;;
72573;SDS011;60603;52.548;13.420;2022-09-29T06:18:32;15.13;;;7.95;;
72573;SDS011;60603;52.548;13.420;2022-09-29T06:21:01;14.73;;;7.40;;
72573;SDS011;60603;52.548;13.420;2022-09-29T06:23:28;15.00;;;8.15;;
72573;SDS011;60603;52.548;13.420;2022-09-29T06:25:54;16.65;;;7.85;;
72573;SDS011;60603;52.548;13.420;2022-09-29T06:28:21;16.42;;;7.40;;
72573;SDS011;60603;52.548;13.420;2022-09-29T06:30:46;23.20;;;8.95;;
72573;SDS011;60603;52.548;13.420;2022-09-29T06:33:12;15.18;;;7.22;;
72573;SDS011;60603;52.548;13.420;2022-09-29T06:35:38;13.73;;;7.07;;
72573;SDS011;60603;52.548;13.420;2022-09-29T06:38:22;14.20;;;7.20;;
72573;SDS011;60603;52.548;13.420;2022-09-29T06:40:48;14.80;;;8.02;;
72573;SDS011;60603;52.548;13.420;2022-09-29T06:43:13;24.83;;;13.35;;
72573;SDS011;60603;52.548;13.420;2022-09-29T06:45:39;16.05;;;7.93;;
72573;SDS011;60603;52.548;13.420;2022-09-29T06:48:05;13.95;;;7.50;;
72573;SDS011;60603;52.548;13.420;2022-09-29T06:50:34;17.88;;;7.75;;
72573;SDS011;60603;52.548;13.420;2022-09-29T06:52:59;19.65;;;9.07;;
72573;SDS011;60603;52.548;13.420;2022-09-29T06:55:25;16.83;;;8.43;;
72573;SDS011;60603;52.548;13.420;2022-09-29T06:57:51;16.60;;;7.70;;
72573;SDS011;60603;52.548;13.420;2022-09-29T07:00:17;16.20;;;7.07;;
72573;SDS011;60603;52.548;13.420;2022-09-29T07:02:44;14.82;;;7.97;;
72573;SDS011;60603;52.548;13.420;2022-09-29T07:05:12;17.42;;;8.43;;
72573;SDS011;60603;52.548;13.420;2022-09-29T07:07:38;17.13;;;7.70;;
72573;SDS011;60603;52.548;13.420;2022-09-29T07:10:04;15.02;;;8.52;;
72573;SDS011;60603;52.548;13.420;2022-09-29T07:12:30;21.00;;;9.25;;
72573;SDS011;60603;52.548;13.420;2022-09-29T07:14:55;17.83;;;8.77;;
72573;SDS011;60603;52.548;13.420;2022-09-29T07:17:21;15.25;;;8.05;;
72573;SDS011;60603;52.548;13.420;2022-09-29T07:19:48;17.15;;;8.93;;
72573;SDS011;60603;52.548;13.420;2022-09-29T07:22:13;14.32;;;7.68;;
72573;SDS011;60603;52.548;13.420;2022-09-29T07:24:39;15.05;;;8.40;;
72573;SDS011;60603;52.548;13.420;2022-09-29T07:27:07;14.52;;;7.70;;
72573;SDS011;60603;52.548;13.420;2022-09-29T07:29:33;17.35;;;9.27;;
72573;SDS011;60603;52.548;13.420;2022-09-29T07:31:59;15.40;;;8.35;;
72573;SDS011;60603;52.548;13.420;2022-09-29T07:34:25;17.92;;;8.88;;
72573;SDS011;60603;52.548;13.420;2022-09-29T07:36:51;17.38;;;8.85;;
72573;SDS011;60603;52.548;13.420;2022-09-29T07:39:18;18.63;;;7.88;;
72573;SDS011;60603;52.548;13.420;2022-09-29T07:41:44;19.95;;;8.30;;
72573;SDS011;60603;52.548;13.420;2022-09-29T07:44:10;14.77;;;8.18;;
72573;SDS011;60603;52.548;13.420;2022-09-29T07:46:35;15.77;;;7.75;;
72573;SDS011;60603;52.548;13.420;2022-09-29T07:49:01;15.43;;;8.10;;
72573;SDS011;60603;52.548;13.420;2022-09-29T07:51:27;15.25;;;8.77;;
72573;SDS011;60603;52.548;13.420;2022-09-29T07:53:53;17.40;;;8.95;;
72573;SDS011;60603;52.548;13.420;2022-09-29T07:56:20;16.42;;;7.78;;
72573;SDS011;60603;52.548;13.420;2022-09-29T07:58:46;18.65;;;8.75;;
72573;SDS011;60603;52.548;13.420;2022-09-29T08:01:15;18.58;;;8.52;;
72573;SDS011;60603;52.548;13.420;2022-09-29T08:03:42;17.08;;;8.20;;
72573;SDS011;60603;52.548;13.420;2022-09-29T08:06:10;19.17;;;8.95;;
72573;SDS011;60603;52.548;13.420;2022-09-29T08:08:36;14.77;;;7.85;;
72573;SDS011;60603;52.548;13.420;2022-09-29T08:11:10;19.65;;;9.13;;
72573;SDS011;60603;52.548;13.420;2022-09-29T08:13:37;17.17;;;9.00;;
72573;SDS011;60603;52.548;13.420;2022-09-29T08:16:04;18.30;;;9.30;;
72573;SDS011;60603;52.548;13.420;2022-09-29T08:18:33;16.83;;;8.25;;
72573;SDS011;60603;52.548;13.420;2022-09-29T08:21:00;17.55;;;8.43;;
72573;SDS011;60603;52.548;13.420;2022-09-29T08:23:27;16.50;;;8.82;;
72573;SDS011;60603;52.548;13.420;2022-09-29T08:25:58;16.58;;;8.60;;
72573;SDS011;60603;52.548;13.420;2022-09-29T08:28:25;15.48;;;8.20;;
72573;SDS011;60603;52.548;13.420;2022-09-29T08:30:50;16.38;;;8.88;;
72573;SDS011;60603;52.548;13.420;2022-09-29T08:33:16;19.40;;;9.07;;
72573;SDS011;60603;52.548;13.420;2022-09-29T08:35:42;17.58;;;8.70;;
72573;SDS011;60603;52.548;13.420;2022-09-29T08:38:07;19.67;;;8.75;;
72573;SDS011;60603;52.548;13.420;2022-09-29T08:40:33;22.17;;;9.55;;
72573;SDS011;60603;52.548;13.420;2022-09-29T08:43:03;15.23;;;8.48;;
72573;SDS011;60603;52.548;13.420;2022-09-29T08:45:38;17.48;;;8.40;;
72573;SDS011;60603;52.548;13.420;2022-09-29T08:48:23;14.50;;;8.35;;
72573;SDS011;60603;52.548;13.420;2022-09-29T08:51:01;21.65;;;9.63;;
72573;SDS011;60603;52.548;13.420;2022-09-29T08:53:29;17.02;;;8.73;;
72573;SDS011;60603;52.548;13.420;2022-09-29T08:56:07;15.15;;;9.10;;
72573;SDS011;60603;52.548;13.420;2022-09-29T08:58:38;16.10;;;9.32;;
72573;SDS011;60603;52.548;13.420;2022-09-29T09:03:57;17.00;;;9.32;;
72573;SDS011;60603;52.548;13.420;2022-09-29T09:17:24;21.05;;;8.65;;
72573;SDS011;60603;52.548;13.420;2022-09-29T09:25:56;17.25;;;9.10;;
72573;SDS011;60603;52.548;13.420;2022-09-29T09:28:29;16.70;;;10.02;;
72573;SDS011;60603;52.548;13.420;2022-09-29T09:31:05;15.38;;;8.35;;
72573;SDS011;60603;52.548;13.420;2022-09-29T09:33:40;19.40;;;9.80;;
72573;SDS011;60603;52.548;13.420;2022-09-29T09:36:11;15.63;;;8.27;;
72573;SDS011;60603;52.548;13.420;2022-09-29T09:38:50;15.85;;;8.75;;
72573;SDS011;60603;52.548;13.420;2022-09-29T09:41:21;17.33;;;8.63;;
72573;SDS011;60603;52.548;13.420;2022-09-29T09:43:50;15.75;;;8.18;;
72573;SDS011;60603;52.548;13.420;2022-09-29T09:49:06;15.18;;;8.80;;
72573;SDS011;60603;52.548;13.420;2022-09-29T09:51:43;14.45;;;8.50;;
72573;SDS011;60603;52.548;13.420;2022-09-29T09:54:24;15.00;;;8.63;;
72573;SDS011;60603;52.548;13.420;2022-09-29T10:02:37;16.58;;;8.48;;
72573;SDS011;60603;52.548;13.420;2022-09-29T10:05:11;14.57;;;8.10;;
72573;SDS011;60603;52.548;13.420;2022-09-29T10:07:58;15.68;;;9.63;;
72573;SDS011;60603;52.548;13.420;2022-09-29T10:10:25;13.75;;;7.85;;
72573;SDS011;60603;52.548;13.420;2022-09-29T10:13:03;17.50;;;8.45;;
72573;SDS011;60603;52.548;13.420;2022-09-29T10:15:41;16.05;;;8.85;;
72573;SDS011;60603;52.548;13.420;2022-09-29T10:18:24;17.35;;;8.93;;
72573;SDS011;60603;52.548;13.420;2022-09-29T10:20:54;14.70;;;8.27;;
72573;SDS011;60603;52.548;13.420;2022-09-29T10:25:58;12.35;;;7.60;;
72573;SDS011;60603;52.548;13.420;2022-09-29T10:28:27;12.10;;;6.95;;
72573;SDS011;60603;52.548;13.420;2022-09-29T10:31:02;12.75;;;6.97;;
72573;SDS011;60603;52.548;13.420;2022-09-29T10:33:44;11.20;;;6.05;;
72573;SDS011;60603;52.548;13.420;2022-09-29T10:36:14;10.95;;;6.32;;
72573;SDS011;60603;52.548;13.420;2022-09-29T10:38:44;10.85;;;6.22;;
72573;SDS011;60603;52.548;13.420;2022-09-29T10:41:11;13.55;;;6.55;;
72573;SDS011;60603;52.548;13.420;2022-09-29T10:43:38;9.27;;;5.40;;
72573;SDS011;60603;52.548;13.420;2022-09-29T10:46:25;12.20;;;7.13;;
72573;SDS011;60603;52.548;13.420;2022-09-29T10:49:07;10.52;;;5.53;;
72573;SDS011;60603;52.548;13.420;2022-09-29T10:51:34;10.73;;;6.25;;
72573;SDS011;60603;52.548;13.420;2022-09-29T10:54:05;10.05;;;5.53;;
72573;SDS011;60603;52.548;13.420;2022-09-29T10:56:33;10.50;;;5.68;;
72573;SDS011;60603;52.548;13.420;2022-09-29T10:58:59;11.73;;;5.50;;
72573;SDS011;60603;52.548;13.420;2022-09-29T11:01:27;9.30;;;5.32;;
72573;SDS011;60603;52.548;13.420;2022-09-29T11:03:56;9.85;;;5.75;;
72573;SDS011;60603;52.548;13.420;2022-09-29T11:06:28;9.25;;;5.68;;
72573;SDS011;60603;52.548;13.420;2022-09-29T11:09:06;12.07;;;5.78;;
72573;SDS011;60603;52.548;13.420;2022-09-29T11:19:48;9.32;;;5.63;;
72573;SDS011;60603;52.548;13.420;2022-09-29T11:24:56;11.38;;;5.43;;
72573;SDS011;60603;52.548;13.420;2022-09-29T11:27:48;9.57;;;5.50;;
72573;SDS011;60603;52.548;13.420;2022-09-29T11:30:22;10.50;;;6.30;;
72573;SDS011;60603;52.548;13.420;2022-09-29T11:33:11;11.13;;;5.65;;
72573;SDS011;60603;52.548;13.420;2022-09-29T11:35:44;8.70;;;5.18;;
72573;SDS011;60603;52.548;13.420;2022-09-29T11:40:53;8.90;;;4.72;;
72573;SDS011;60603;52.548;13.420;2022-09-29T11:43:44;8.90;;;5.25;;
72573;SDS011;60603;52.548;13.420;2022-09-29T11:46:23;11.93;;;6.20;;
72573;SDS011;60603;52.548;13.420;2022-09-29T11:57:24;9.50;;;5.53;;
72573;SDS011;60603;52.548;13.420;2022-09-29T12:05:39;8.18;;;4.50;;
72573;SDS011;60603;52.548;13.420;2022-09-29T12:14:00;9.10;;;4.75;;
72573;SDS011;60603;52.548;13.420;2022-09-29T12:16:36;9.07;;;4.85;;
72573;SDS011;60603;52.548;13.420;2022-09-29T12:19:07;8.68;;;4.70;;
72573;SDS011;60603;52.548;13.420;2022-09-29T12:21:43;10.32;;;4.72;;
72573;SDS011;60603;52.548;13.420;2022-09-29T12:24:14;9.10;;;4.30;;
72573;SDS011;60603;52.548;13.420;2022-09-29T12:26:59;8.70;;;4.22;;
72573;SDS011;60603;52.548;13.420;2022-09-29T12:31:56;7.07;;;3.75;;
72573;SDS011;60603;52.548;13.420;2022-09-29T12:34:37;7.32;;;4.35;;
72573;SDS011;60603;52.548;13.420;2022-09-29T12:37:08;9.43;;;5.20;;
72573;SDS011;60603;52.548;13.420;2022-09-29T12:39:41;7.85;;;4.20;;
72573;SDS011;60603;52.548;13.420;2022-09-29T12:48:49;6.20;;;3.70;;
72573;SDS011;60603;52.548;13.420;2022-09-29T12:51:28;7.38;;;3.70;;
72573;SDS011;60603;52.548;13.420;2022-09-29T12:56:37;7.68;;;4.50;;
72573;SDS011;60603;52.548;13.420;2022-09-29T13:01:50;8.43;;;4.07;;
72573;SDS011;60603;52.548;13.420;2022-09-29T13:15:30;8.45;;;3.97;;
72573;SDS011;60603;52.548;13.420;2022-09-29T13:21:22;6.93;;;3.75;;
72573;SDS011;60603;52.548;13.420;2022-09-29T13:29:23;8.57;;;4.30;;
72573;SDS011;60603;52.548;13.420;2022-09-29T13:31:51;6.35;;;3.78;;
72573;SDS011;60603;52.548;13.420;2022-09-29T13:34:26;6.47;;;3.75;;
72573;SDS011;60603;52.548;13.420;2022-09-29T13:37:03;7.05;;;4.10;;
72573;SDS011;60603;52.548;13.420;2022-09-29T13:39:32;6.47;;;3.35;;
72573;SDS011;60603;52.548;13.420;2022-09-29T13:42:24;5.10;;;3.05;;
72573;SDS011;60603;52.548;13.420;2022-09-29T13:45:49;7.63;;;3.33;;
72573;SDS011;60603;52.548;13.420;2022-09-29T13:47:51;7.15;;;3.08;;
72573;SDS011;60603;52.548;13.420;2022-09-29T13:58:23;7.13;;;3.25;;
72573;SDS011;60603;52.548;13.420;2022-09-29T14:00:50;4.88;;;2.90;;
72573;SDS011;60603;52.548;13.420;2022-09-29T14:03:21;5.22;;;3.00;;
72573;SDS011;60603;52.548;13.420;2022-09-29T14:06:12;8.55;;;2.67;;
72573;SDS011;60603;52.548;13.420;2022-09-29T14:11:30;7.95;;;3.33;;
72573;SDS011;60603;52.548;13.420;2022-09-29T14:16:44;7.45;;;3.22;;
72573;SDS011;60603;52.548;13.420;2022-09-29T14:19:30;6.72;;;3.08;;
72573;SDS011;60603;52.548;13.420;2022-09-29T14:27:44;7.22;;;3.03;;
72573;SDS011;60603;52.548;13.420;2022-09-29T14:30:19;7.32;;;3.10;;
72573;SDS011;60603;52.548;13.420;2022-09-29T14:35:46;5.43;;;3.08;;
72573;SDS011;60603;52.548;13.420;2022-09-29T14:50:02;5.97;;;3.28;;
72573;SDS011;60603;52.548;13.420;2022-09-29T15:03:08;4.53;;;2.38;;
72573;SDS011;60603;52.548;13.420;2022-09-29T15:05:34;7.60;;;2.97;;
72573;SDS011;60603;52.548;13.420;2022-09-29T15:08:01;5.50;;;2.90;;
72573;SDS011;60603;52.548;13.420;2022-09-29T15:10:37;5.30;;;2.85;;
72573;SDS011;60603;52.548;13.420;2022-09-29T15:13:29;5.72;;;3.08;;
72573;SDS011;60603;52.548;13.420;2022-09-29T15:18:53;5.85;;;2.70;;
72573;SDS011;60603;52.548;13.420;2022-09-29T15:24:12;5.60;;;2.67;;
72573;SDS011;60603;52.548;13.420;2022-09-29T15:27:01;6.50;;;3.00;;
72573;SDS011;60603;52.548;13.420;2022-09-29T15:29:28;7.40;;;2.70;;
72573;SDS011;60603;52.548;13.420;2022-09-29T15:31:54;5.30;;;2.40;;
72573;SDS011;60603;52.548;13.420;2022-09-29T15:34:21;5.85;;;2.78;;
72573;SDS011;60603;52.548;13.420;2022-09-29T15:36:50;4.88;;;2.42;;
72573;SDS011;60603;52.548;13.420;2022-09-29T15:39:34;4.68;;;2.03;;
72573;SDS011;60603;52.548;13.420;2022-09-29T15:42:12;4.05;;;2.00;;
72573;SDS011;60603;52.548;13.420;2022-09-29T15:44:44;4.97;;;1.95;;
72573;SDS011;60603;52.548;13.420;2022-09-29T15:47:22;5.97;;;1.98;;
72573;SDS011;60603;52.548;13.420;2022-09-29T15:49:51;4.40;;;2.25;;
72573;SDS011;60603;52.548;13.420;2022-09-29T15:52:18;4.43;;;2.45;;
72573;SDS011;60603;52.548;13.420;2022-09-29T15:54:48;5.40;;;2.40;;
72573;SDS011;60603;52.548;13.420;2022-09-29T16:02:57;4.68;;;2.28;;
72573;SDS011;60603;52.548;13.420;2022-09-29T16:05:28;6.65;;;3.00;;
72573;SDS011;60603;52.548;13.420;2022-09-29T16:08:01;7.35;;;2.92;;
72573;SDS011;60603;52.548;13.420;2022-09-29T16:10:29;6.45;;;3.05;;
72573;SDS011;60603;52.548;13.420;2022-09-29T16:12:57;5.70;;;3.55;;
72573;SDS011;60603;52.548;13.420;2022-09-29T16:15:30;6.43;;;3.30;;
72573;SDS011;60603;52.548;13.420;2022-09-29T16:18:04;6.03;;;3.20;;
72573;SDS011;60603;52.548;13.420;2022-09-29T16:20:32;9.73;;;4.32;;
72573;SDS011;60603;52.548;13.420;2022-09-29T16:23:05;5.65;;;3.08;;
72573;SDS011;60603;52.548;13.420;2022-09-29T16:25:32;7.00;;;3.70;;
72573;SDS011;60603;52.548;13.420;2022-09-29T16:27:59;7.00;;;3.50;;
72573;SDS011;60603;52.548;13.420;2022-09-29T16:30:33;6.38;;;3.17;;
72573;SDS011;60603;52.548;13.420;2022-09-29T16:35:38;7.65;;;3.45;;
72573;SDS011;60603;52.548;13.420;2022-09-29T16:38:27;7.28;;;3.95;;
72573;SDS011;60603;52.548;13.420;2022-09-29T16:41:06;7.93;;;3.47;;
72573;SDS011;60603;52.548;13.420;2022-09-29T16:43:38;7.35;;;3.92;;
72573;SDS011;60603;52.548;13.420;2022-09-29T16:46:06;7.97;;;3.50;;
72573;SDS011;60603;52.548;13.420;2022-09-29T16:48:38;7.15;;;3.78;;
72573;SDS011;60603;52.548;13.420;2022-09-29T16:51:12;7.03;;;3.80;;
72573;SDS011;60603;52.548;13.420;2022-09-29T16:53:45;6.97;;;3.63;;
72573;SDS011;60603;52.548;13.420;2022-09-29T16:56:16;8.00;;;4.43;;
72573;SDS011;60603;52.548;13.420;2022-09-29T16:58:44;6.40;;;3.65;;
72573;SDS011;60603;52.548;13.420;2022-09-29T17:01:10;7.50;;;4.20;;
72573;SDS011;60603;52.548;13.420;2022-09-29T17:03:39;7.97;;;4.00;;
72573;SDS011;60603;52.548;13.420;2022-09-29T17:06:07;8.27;;;4.10;;
72573;SDS011;60603;52.548;13.420;2022-09-29T17:08:33;7.85;;;4.47;;
72573;SDS011;60603;52.548;13.420;2022-09-29T17:10:59;9.70;;;3.67;;
72573;SDS011;60603;52.548;13.420;2022-09-29T17:13:32;9.00;;;4.53;;
72573;SDS011;60603;52.548;13.420;2022-09-29T17:15:59;9.93;;;3.60;;
72573;SDS011;60603;52.548;13.420;2022-09-29T17:18:25;9.95;;;3.95;;
72573;SDS011;60603;52.548;13.420;2022-09-29T17:20:53;6.38;;;3.90;;
72573;SDS011;60603;52.548;13.420;2022-09-29T17:23:19;6.30;;;3.42;;
72573;SDS011;60603;52.548;13.420;2022-09-29T17:25:45;8.38;;;4.18;;
72573;SDS011;60603;52.548;13.420;2022-09-29T17:28:13;10.15;;;5.68;;
72573;SDS011;60603;52.548;13.420;2022-09-29T17:30:42;7.10;;;4.30;;
72573;SDS011;60603;52.548;13.420;2022-09-29T17:33:10;9.95;;;4.95;;
72573;SDS011;60603;52.548;13.420;2022-09-29T17:35:39;10.93;;;5.93;;
72573;SDS011;60603;52.548;13.420;2022-09-29T17:38:05;7.95;;;4.35;;
72573;SDS011;60603;52.548;13.420;2022-09-29T17:40:35;12.60;;;6.30;;
72573;SDS011;60603;52.548;13.420;2022-09-29T17:43:03;6.65;;;4.13;;
72573;SDS011;60603;52.548;13.420;2022-09-29T17:45:29;8.20;;;4.40;;
72573;SDS011;60603;52.548;13.420;2022-09-29T17:48:02;7.78;;;4.30;;
72573;SDS011;60603;52.548;13.420;2022-09-29T17:50:31;6.72;;;3.95;;
72573;SDS011;60603;52.548;13.420;2022-09-29T17:53:01;9.80;;;4.00;;